sensor_id;sensor_type;location;lat;lon;timestamp;temperature;humidity
38941;DHT22;43236;47.208;7.518;2023-03-20T00:01:45;10.90;99.90
38941;DHT22;43236;47.208;7.518;2023-03-20T00:04:33;10.90;99.90
38941;DHT22;43236;47.208;7.518;2023-03-20T00:07:21;10.90;99.90
38941;DHT22;43236;47.208;7.518;2023-03-20T00:10:09;10.90;99.90
38941;DHT22;43236;47.208;7.518;2023-03-20T00:12:56;10.90;99.90
38941;DHT22;43236;47.208;7.518;2023-03-20T00:15:45;10.80;99.90
38941;DHT22;43236;47.208;7.518;2023-03-20T00:18:32;10.80;99.90
38941;DHT22;43236;47.208;7.518;2023-03-20T00:21:19;10.70;99.90
38941;DHT22;43236;47.208;7.518;2023-03-20T00:24:07;10.60;99.90
38941;DHT22;43236;47.208;7.518;2023-03-20T00:26:55;10.50;99.90
38941;DHT22;43236;47.208;7.518;2023-03-20T00:29:42;10.50;99.90
38941;DHT22;43236;47.208;7.518;2023-03-20T00:32:29;10.40;99.90
38941;DHT22;43236;47.208;7.518;2023-03-20T00:35:18;10.30;99.90
38941;DHT22;43236;47.208;7.518;2023-03-20T00:38:05;10.30;99.90
38941;DHT22;43236;47.208;7.518;2023-03-20T00:40:54;10.20;99.90
38941;DHT22;43236;47.208;7.518;2023-03-20T00:43:41;10.10;99.90
38941;DHT22;43236;47.208;7.518;2023-03-20T00:46:36;10.10;99.90
38941;DHT22;43236;47.208;7.518;2023-03-20T00:49:26;10.10;99.90
38941;DHT22;43236;47.208;7.518;2023-03-20T00:52:14;10.00;99.90
38941;DHT22;43236;47.208;7.518;2023-03-20T00:55:01;10.00;99.90
38941;DHT22;43236;47.208;7.518;2023-03-20T00:57:51;10.00;99.90
38941;DHT22;43236;47.208;7.518;2023-03-20T01:00:41;9.90;99.90
38941;DHT22;43236;47.208;7.518;2023-03-20T01:03:28;9.90;99.90
38941;DHT22;43236;47.208;7.518;2023-03-20T01:06:16;9.90;99.90
38941;DHT22;43236;47.208;7.518;2023-03-20T01:09:04;9.80;99.90
38941;DHT22;43236;47.208;7.518;2023-03-20T01:11:51;9.80;99.90
38941;DHT22;43236;47.208;7.518;2023-03-20T01:14:40;9.80;99.90
38941;DHT22;43236;47.208;7.518;2023-03-20T01:17:27;9.80;99.90
38941;DHT22;43236;47.208;7.518;2023-03-20T01:20:22;9.70;99.90
38941;DHT22;43236;47.208;7.518;2023-03-20T01:23:10;9.70;99.90
38941;DHT22;43236;47.208;7.518;2023-03-20T01:25:57;9.70;99.90
38941;DHT22;43236;47.208;7.518;2023-03-20T01:28:43;9.70;99.90
38941;DHT22;43236;47.208;7.518;2023-03-20T01:31:32;9.70;99.90
38941;DHT22;43236;47.208;7.518;2023-03-20T01:34:19;9.70;99.90
38941;DHT22;43236;47.208;7.518;2023-03-20T01:37:11;9.70;99.90
38941;DHT22;43236;47.208;7.518;2023-03-20T01:39:59;9.60;99.90
38941;DHT22;43236;47.208;7.518;2023-03-20T01:42:46;9.60;99.90
38941;DHT22;43236;47.208;7.518;2023-03-20T01:45:34;9.50;99.90
38941;DHT22;43236;47.208;7.518;2023-03-20T01:48:25;9.50;99.90
38941;DHT22;43236;47.208;7.518;2023-03-20T01:51:12;9.40;99.90
38941;DHT22;43236;47.208;7.518;2023-03-20T01:54:03;9.40;99.90
38941;DHT22;43236;47.208;7.518;2023-03-20T01:56:55;9.40;99.90
38941;DHT22;43236;47.208;7.518;2023-03-20T01:59:45;9.40;99.90
38941;DHT22;43236;47.208;7.518;2023-03-20T02:02:33;9.30;99.90
38941;DHT22;43236;47.208;7.518;2023-03-20T02:05:22;9.30;99.90
38941;DHT22;43236;47.208;7.518;2023-03-20T02:08:21;9.30;99.90
38941;DHT22;43236;47.208;7.518;2023-03-20T02:11:08;9.20;99.90
38941;DHT22;43236;47.208;7.518;2023-03-20T02:13:58;9.20;99.90
38941;DHT22;43236;47.208;7.518;2023-03-20T02:16:46;9.20;99.90
38941;DHT22;43236;47.208;7.518;2023-03-20T02:19:40;9.20;99.90
38941;DHT22;43236;47.208;7.518;2023-03-20T02:33:00;9.10;99.90
38941;DHT22;43236;47.208;7.518;2023-03-20T02:36:44;9.10;99.90
38941;DHT22;43236;47.208;7.518;2023-03-20T02:39:46;9.20;99.90
38941;DHT22;43236;47.208;7.518;2023-03-20T02:42:41;9.20;99.90
38941;DHT22;43236;47.208;7.518;2023-03-20T02:45:33;9.20;99.90
38941;DHT22;43236;47.208;7.518;2023-03-20T02:48:30;9.20;99.90
38941;DHT22;43236;47.208;7.518;2023-03-20T02:51:22;9.20;99.90
38941;DHT22;43236;47.208;7.518;2023-03-20T02:54:19;9.20;99.90
38941;DHT22;43236;47.208;7.518;2023-03-20T02:57:16;9.20;99.90
38941;DHT22;43236;47.208;7.518;2023-03-20T03:00:09;9.20;99.90
38941;DHT22;43236;47.208;7.518;2023-03-20T03:03:05;9.20;99.90
38941;DHT22;43236;47.208;7.518;2023-03-20T03:05:55;9.20;99.90
38941;DHT22;43236;47.208;7.518;2023-03-20T03:08:48;9.20;99.90
38941;DHT22;43236;47.208;7.518;2023-03-20T03:11:38;9.20;99.90
38941;DHT22;43236;47.208;7.518;2023-03-20T03:14:34;9.20;99.90
38941;DHT22;43236;47.208;7.518;2023-03-20T03:17:24;9.20;99.90
38941;DHT22;43236;47.208;7.518;2023-03-20T03:20:19;9.20;99.90
38941;DHT22;43236;47.208;7.518;2023-03-20T03:23:07;9.30;99.90
38941;DHT22;43236;47.208;7.518;2023-03-20T03:25:58;9.30;99.90
38941;DHT22;43236;47.208;7.518;2023-03-20T03:28:49;9.30;99.90
38941;DHT22;43236;47.208;7.518;2023-03-20T03:31:40;9.40;99.90
38941;DHT22;43236;47.208;7.518;2023-03-20T03:34:27;9.40;99.90
38941;DHT22;43236;47.208;7.518;2023-03-20T03:37:23;9.40;99.90
38941;DHT22;43236;47.208;7.518;2023-03-20T03:40:18;9.40;99.90
38941;DHT22;43236;47.208;7.518;2023-03-20T03:43:13;9.40;99.90
38941;DHT22;43236;47.208;7.518;2023-03-20T03:46:05;9.40;99.90
38941;DHT22;43236;47.208;7.518;2023-03-20T03:48:56;9.30;99.90
38941;DHT22;43236;47.208;7.518;2023-03-20T03:51:47;9.30;99.90
38941;DHT22;43236;47.208;7.518;2023-03-20T03:54:39;9.30;99.90
38941;DHT22;43236;47.208;7.518;2023-03-20T03:57:31;9.40;99.90
38941;DHT22;43236;47.208;7.518;2023-03-20T04:00:22;9.40;99.90
38941;DHT22;43236;47.208;7.518;2023-03-20T04:03:10;9.30;99.90
38941;DHT22;43236;47.208;7.518;2023-03-20T04:06:00;9.40;99.90
38941;DHT22;43236;47.208;7.518;2023-03-20T04:08:48;9.30;99.90
38941;DHT22;43236;47.208;7.518;2023-03-20T04:11:36;9.40;99.90
38941;DHT22;43236;47.208;7.518;2023-03-20T04:14:23;9.40;99.90
38941;DHT22;43236;47.208;7.518;2023-03-20T04:17:11;9.40;99.90
38941;DHT22;43236;47.208;7.518;2023-03-20T04:19:58;9.40;99.90
38941;DHT22;43236;47.208;7.518;2023-03-20T04:22:46;9.40;99.90
38941;DHT22;43236;47.208;7.518;2023-03-20T04:25:33;9.40;99.90
38941;DHT22;43236;47.208;7.518;2023-03-20T04:28:20;9.40;99.90
38941;DHT22;43236;47.208;7.518;2023-03-20T04:31:07;9.40;99.90
38941;DHT22;43236;47.208;7.518;2023-03-20T04:33:54;9.30;99.90
38941;DHT22;43236;47.208;7.518;2023-03-20T04:36:41;9.30;99.90
38941;DHT22;43236;47.208;7.518;2023-03-20T04:39:30;9.30;99.90
38941;DHT22;43236;47.208;7.518;2023-03-20T04:42:17;9.30;99.90
38941;DHT22;43236;47.208;7.518;2023-03-20T04:45:05;9.20;99.90
38941;DHT22;43236;47.208;7.518;2023-03-20T04:47:53;9.30;99.90
38941;DHT22;43236;47.208;7.518;2023-03-20T04:50:40;9.30;99.90
38941;DHT22;43236;47.208;7.518;2023-03-20T04:53:27;9.30;99.90
38941;DHT22;43236;47.208;7.518;2023-03-20T04:56:15;9.30;99.90
38941;DHT22;43236;47.208;7.518;2023-03-20T04:59:02;9.30;99.90
38941;DHT22;43236;47.208;7.518;2023-03-20T05:01:49;9.30;99.90
38941;DHT22;43236;47.208;7.518;2023-03-20T05:04:36;9.40;99.90
38941;DHT22;43236;47.208;7.518;2023-03-20T05:07:23;9.40;99.90
38941;DHT22;43236;47.208;7.518;2023-03-20T05:10:10;9.40;99.90
38941;DHT22;43236;47.208;7.518;2023-03-20T05:12:59;9.40;99.90
38941;DHT22;43236;47.208;7.518;2023-03-20T05:15:46;9.30;99.90
38941;DHT22;43236;47.208;7.518;2023-03-20T05:18:33;9.30;99.90
38941;DHT22;43236;47.208;7.518;2023-03-20T05:21:20;9.30;99.90
38941;DHT22;43236;47.208;7.518;2023-03-20T05:24:07;9.30;99.90
38941;DHT22;43236;47.208;7.518;2023-03-20T05:26:54;9.30;99.90
38941;DHT22;43236;47.208;7.518;2023-03-20T05:29:42;9.20;99.90
38941;DHT22;43236;47.208;7.518;2023-03-20T05:32:30;9.20;99.90
38941;DHT22;43236;47.208;7.518;2023-03-20T05:35:17;9.10;99.90
38941;DHT22;43236;47.208;7.518;2023-03-20T05:38:04;9.10;99.90
38941;DHT22;43236;47.208;7.518;2023-03-20T05:40:55;9.00;99.90
38941;DHT22;43236;47.208;7.518;2023-03-20T05:43:42;9.10;99.90
38941;DHT22;43236;47.208;7.518;2023-03-20T05:46:30;9.00;99.90
38941;DHT22;43236;47.208;7.518;2023-03-20T05:49:17;9.00;99.90
38941;DHT22;43236;47.208;7.518;2023-03-20T05:52:05;9.00;99.90
38941;DHT22;43236;47.208;7.518;2023-03-20T05:54:52;8.90;99.90
38941;DHT22;43236;47.208;7.518;2023-03-20T05:57:39;8.90;99.90
38941;DHT22;43236;47.208;7.518;2023-03-20T06:00:26;8.90;99.90
38941;DHT22;43236;47.208;7.518;2023-03-20T06:03:14;8.90;99.90
38941;DHT22;43236;47.208;7.518;2023-03-20T06:06:01;8.80;99.90
38941;DHT22;43236;47.208;7.518;2023-03-20T06:08:48;8.80;99.90
38941;DHT22;43236;47.208;7.518;2023-03-20T06:11:35;8.80;99.90
38941;DHT22;43236;47.208;7.518;2023-03-20T06:14:22;8.80;99.90
38941;DHT22;43236;47.208;7.518;2023-03-20T06:17:10;8.80;99.90
38941;DHT22;43236;47.208;7.518;2023-03-20T06:19:58;8.80;99.90
38941;DHT22;43236;47.208;7.518;2023-03-20T06:22:45;8.80;99.90
38941;DHT22;43236;47.208;7.518;2023-03-20T06:25:32;8.80;99.90
38941;DHT22;43236;47.208;7.518;2023-03-20T06:28:20;8.80;99.90
38941;DHT22;43236;47.208;7.518;2023-03-20T06:31:07;8.80;99.90
38941;DHT22;43236;47.208;7.518;2023-03-20T06:33:54;8.80;99.90
38941;DHT22;43236;47.208;7.518;2023-03-20T06:36:43;8.80;99.90
38941;DHT22;43236;47.208;7.518;2023-03-20T06:39:31;8.90;99.90
38941;DHT22;43236;47.208;7.518;2023-03-20T06:42:18;8.90;99.90
38941;DHT22;43236;47.208;7.518;2023-03-20T06:45:06;8.90;99.90
38941;DHT22;43236;47.208;7.518;2023-03-20T06:47:53;9.00;99.90
38941;DHT22;43236;47.208;7.518;2023-03-20T06:50:40;9.00;99.90
38941;DHT22;43236;47.208;7.518;2023-03-20T06:53:29;9.10;99.90
38941;DHT22;43236;47.208;7.518;2023-03-20T06:56:16;9.10;99.90
38941;DHT22;43236;47.208;7.518;2023-03-20T06:59:03;9.20;99.90
38941;DHT22;43236;47.208;7.518;2023-03-20T07:01:50;9.20;99.90
38941;DHT22;43236;47.208;7.518;2023-03-20T07:04:37;9.30;99.90
38941;DHT22;43236;47.208;7.518;2023-03-20T07:07:24;9.30;99.90
38941;DHT22;43236;47.208;7.518;2023-03-20T07:10:13;9.40;99.90
38941;DHT22;43236;47.208;7.518;2023-03-20T07:13:00;9.50;99.90
38941;DHT22;43236;47.208;7.518;2023-03-20T07:15:47;9.50;99.90
38941;DHT22;43236;47.208;7.518;2023-03-20T07:18:34;9.60;99.90
38941;DHT22;43236;47.208;7.518;2023-03-20T07:21:22;9.60;99.90
38941;DHT22;43236;47.208;7.518;2023-03-20T07:24:09;9.70;99.90
38941;DHT22;43236;47.208;7.518;2023-03-20T07:26:58;9.70;99.90
38941;DHT22;43236;47.208;7.518;2023-03-20T07:29:46;9.70;99.90
38941;DHT22;43236;47.208;7.518;2023-03-20T07:32:33;9.90;99.90
38941;DHT22;43236;47.208;7.518;2023-03-20T07:35:20;9.90;99.90
38941;DHT22;43236;47.208;7.518;2023-03-20T07:38:07;9.90;99.90
38941;DHT22;43236;47.208;7.518;2023-03-20T07:40:54;9.90;99.90
38941;DHT22;43236;47.208;7.518;2023-03-20T07:43:42;10.00;99.90
38941;DHT22;43236;47.208;7.518;2023-03-20T07:46:29;10.00;99.90
38941;DHT22;43236;47.208;7.518;2023-03-20T07:49:17;10.00;99.90
38941;DHT22;43236;47.208;7.518;2023-03-20T07:52:04;10.10;99.90
38941;DHT22;43236;47.208;7.518;2023-03-20T07:54:51;10.10;99.90
38941;DHT22;43236;47.208;7.518;2023-03-20T07:57:38;10.10;99.90
38941;DHT22;43236;47.208;7.518;2023-03-20T08:00:27;10.20;99.90
38941;DHT22;43236;47.208;7.518;2023-03-20T08:03:14;10.20;99.90
38941;DHT22;43236;47.208;7.518;2023-03-20T08:06:01;10.30;99.90
38941;DHT22;43236;47.208;7.518;2023-03-20T08:08:51;10.30;99.90
38941;DHT22;43236;47.208;7.518;2023-03-20T08:11:38;10.40;99.90
38941;DHT22;43236;47.208;7.518;2023-03-20T08:14:25;10.40;99.90
38941;DHT22;43236;47.208;7.518;2023-03-20T08:17:14;10.50;99.90
38941;DHT22;43236;47.208;7.518;2023-03-20T08:20:01;10.50;99.90
38941;DHT22;43236;47.208;7.518;2023-03-20T08:22:48;10.60;99.90
38941;DHT22;43236;47.208;7.518;2023-03-20T08:25:35;10.70;99.90
38941;DHT22;43236;47.208;7.518;2023-03-20T08:28:22;10.80;99.90
38941;DHT22;43236;47.208;7.518;2023-03-20T08:31:10;10.80;99.90
38941;DHT22;43236;47.208;7.518;2023-03-20T08:33:58;10.90;99.90
38941;DHT22;43236;47.208;7.518;2023-03-20T08:36:45;11.00;99.90
38941;DHT22;43236;47.208;7.518;2023-03-20T08:39:32;11.00;99.90
38941;DHT22;43236;47.208;7.518;2023-03-20T08:42:20;11.10;99.90
38941;DHT22;43236;47.208;7.518;2023-03-20T08:45:08;11.10;99.90
38941;DHT22;43236;47.208;7.518;2023-03-20T08:47:55;11.20;99.90
38941;DHT22;43236;47.208;7.518;2023-03-20T08:50:44;11.20;99.90
38941;DHT22;43236;47.208;7.518;2023-03-20T08:53:31;11.20;99.90
38941;DHT22;43236;47.208;7.518;2023-03-20T08:56:18;11.30;99.90
38941;DHT22;43236;47.208;7.518;2023-03-20T08:59:05;11.40;99.90
38941;DHT22;43236;47.208;7.518;2023-03-20T09:01:52;11.40;99.90
38941;DHT22;43236;47.208;7.518;2023-03-20T09:04:39;11.50;99.90
38941;DHT22;43236;47.208;7.518;2023-03-20T09:07:28;11.60;99.90
38941;DHT22;43236;47.208;7.518;2023-03-20T09:10:15;11.60;99.90
38941;DHT22;43236;47.208;7.518;2023-03-20T09:13:02;11.70;99.90
38941;DHT22;43236;47.208;7.518;2023-03-20T09:15:50;11.70;99.90
38941;DHT22;43236;47.208;7.518;2023-03-20T09:18:37;11.80;99.90
38941;DHT22;43236;47.208;7.518;2023-03-20T09:21:24;11.90;99.90
38941;DHT22;43236;47.208;7.518;2023-03-20T09:24:12;11.90;99.90
38941;DHT22;43236;47.208;7.518;2023-03-20T09:26:59;12.00;99.90
38941;DHT22;43236;47.208;7.518;2023-03-20T09:29:46;12.00;99.90
38941;DHT22;43236;47.208;7.518;2023-03-20T09:32:33;12.10;99.90
38941;DHT22;43236;47.208;7.518;2023-03-20T09:35:21;12.10;99.90
38941;DHT22;43236;47.208;7.518;2023-03-20T09:38:08;12.20;99.90
38941;DHT22;43236;47.208;7.518;2023-03-20T09:40:58;12.30;99.90
38941;DHT22;43236;47.208;7.518;2023-03-20T09:43:55;12.40;99.90
38941;DHT22;43236;47.208;7.518;2023-03-20T09:46:56;12.50;99.90
38941;DHT22;43236;47.208;7.518;2023-03-20T09:49:56;12.60;99.90
38941;DHT22;43236;47.208;7.518;2023-03-20T09:52:50;12.70;99.90
38941;DHT22;43236;47.208;7.518;2023-03-20T09:55:39;12.70;99.90
38941;DHT22;43236;47.208;7.518;2023-03-20T09:58:31;12.80;99.90
38941;DHT22;43236;47.208;7.518;2023-03-20T10:01:21;12.90;99.90
38941;DHT22;43236;47.208;7.518;2023-03-20T10:04:09;12.90;99.90
38941;DHT22;43236;47.208;7.518;2023-03-20T10:06:57;13.00;99.90
38941;DHT22;43236;47.208;7.518;2023-03-20T10:09:44;13.20;98.20
38941;DHT22;43236;47.208;7.518;2023-03-20T10:12:45;13.40;98.80
38941;DHT22;43236;47.208;7.518;2023-03-20T10:15:44;13.50;97.10
38941;DHT22;43236;47.208;7.518;2023-03-20T10:18:34;13.80;97.30
38941;DHT22;43236;47.208;7.518;2023-03-20T10:21:29;14.00;93.60
38941;DHT22;43236;47.208;7.518;2023-03-20T10:24:20;14.10;95.10
38941;DHT22;43236;47.208;7.518;2023-03-20T10:27:16;14.40;95.60
38941;DHT22;43236;47.208;7.518;2023-03-20T10:30:21;14.50;95.70
38941;DHT22;43236;47.208;7.518;2023-03-20T10:33:23;14.70;95.00
38941;DHT22;43236;47.208;7.518;2023-03-20T10:36:23;14.80;95.80
38941;DHT22;43236;47.208;7.518;2023-03-20T10:39:18;14.90;95.00
38941;DHT22;43236;47.208;7.518;2023-03-20T10:42:12;15.00;94.10
38941;DHT22;43236;47.208;7.518;2023-03-20T10:45:03;15.00;92.80
38941;DHT22;43236;47.208;7.518;2023-03-20T10:47:54;15.00;91.80
38941;DHT22;43236;47.208;7.518;2023-03-20T10:50:45;15.00;92.50
38941;DHT22;43236;47.208;7.518;2023-03-20T10:53:37;15.10;93.90
38941;DHT22;43236;47.208;7.518;2023-03-20T10:56:28;15.00;91.40
38941;DHT22;43236;47.208;7.518;2023-03-20T10:59:21;15.00;91.30
38941;DHT22;43236;47.208;7.518;2023-03-20T11:02:09;15.00;90.20
38941;DHT22;43236;47.208;7.518;2023-03-20T11:04:59;15.00;88.80
38941;DHT22;43236;47.208;7.518;2023-03-20T11:07:49;15.00;88.60
38941;DHT22;43236;47.208;7.518;2023-03-20T11:10:38;14.90;89.20
38941;DHT22;43236;47.208;7.518;2023-03-20T11:13:29;15.00;90.10
38941;DHT22;43236;47.208;7.518;2023-03-20T11:16:20;15.10;85.60
38941;DHT22;43236;47.208;7.518;2023-03-20T11:19:09;15.00;85.90
38941;DHT22;43236;47.208;7.518;2023-03-20T11:22:01;15.10;84.70
38941;DHT22;43236;47.208;7.518;2023-03-20T11:24:55;15.10;85.70
38941;DHT22;43236;47.208;7.518;2023-03-20T11:27:43;15.10;85.10
38941;DHT22;43236;47.208;7.518;2023-03-20T11:30:30;15.20;87.00
38941;DHT22;43236;47.208;7.518;2023-03-20T11:33:17;15.20;85.90
38941;DHT22;43236;47.208;7.518;2023-03-20T11:36:11;15.10;87.40
38941;DHT22;43236;47.208;7.518;2023-03-20T11:39:06;15.10;85.30
38941;DHT22;43236;47.208;7.518;2023-03-20T11:41:56;14.90;84.60
38941;DHT22;43236;47.208;7.518;2023-03-20T11:44:56;14.80;84.50
38941;DHT22;43236;47.208;7.518;2023-03-20T11:47:47;14.90;86.50
38941;DHT22;43236;47.208;7.518;2023-03-20T11:50:40;14.80;83.80
38941;DHT22;43236;47.208;7.518;2023-03-20T11:53:30;14.80;84.80
38941;DHT22;43236;47.208;7.518;2023-03-20T11:56:21;14.80;86.10
38941;DHT22;43236;47.208;7.518;2023-03-20T11:59:14;14.90;86.30
38941;DHT22;43236;47.208;7.518;2023-03-20T12:02:11;14.90;86.90
38941;DHT22;43236;47.208;7.518;2023-03-20T12:05:00;15.00;85.30
38941;DHT22;43236;47.208;7.518;2023-03-20T12:07:48;15.10;83.20
38941;DHT22;43236;47.208;7.518;2023-03-20T12:10:40;15.20;85.40
38941;DHT22;43236;47.208;7.518;2023-03-20T12:13:30;15.40;89.10
38941;DHT22;43236;47.208;7.518;2023-03-20T12:16:21;15.50;86.20
38941;DHT22;43236;47.208;7.518;2023-03-20T12:19:13;15.60;83.60
38941;DHT22;43236;47.208;7.518;2023-03-20T12:22:15;15.80;85.10
38941;DHT22;43236;47.208;7.518;2023-03-20T12:25:15;15.80;82.70
38941;DHT22;43236;47.208;7.518;2023-03-20T12:28:07;16.00;86.20
38941;DHT22;43236;47.208;7.518;2023-03-20T12:31:03;16.20;86.40
38941;DHT22;43236;47.208;7.518;2023-03-20T12:33:57;16.30;82.50
38941;DHT22;43236;47.208;7.518;2023-03-20T12:36:48;16.40;85.70
38941;DHT22;43236;47.208;7.518;2023-03-20T12:39:40;16.40;84.70
38941;DHT22;43236;47.208;7.518;2023-03-20T12:42:37;16.40;84.50
38941;DHT22;43236;47.208;7.518;2023-03-20T12:45:30;16.30;82.70
38941;DHT22;43236;47.208;7.518;2023-03-20T12:48:36;16.30;81.40
38941;DHT22;43236;47.208;7.518;2023-03-20T12:51:34;16.30;82.50
38941;DHT22;43236;47.208;7.518;2023-03-20T12:54:34;16.20;80.60
38941;DHT22;43236;47.208;7.518;2023-03-20T12:57:28;16.20;79.70
38941;DHT22;43236;47.208;7.518;2023-03-20T13:00:20;16.20;78.50
38941;DHT22;43236;47.208;7.518;2023-03-20T13:06:38;16.10;77.10
38941;DHT22;43236;47.208;7.518;2023-03-20T13:09:42;16.10;78.10
38941;DHT22;43236;47.208;7.518;2023-03-20T13:12:38;16.10;79.40
38941;DHT22;43236;47.208;7.518;2023-03-20T13:15:33;16.10;77.80
38941;DHT22;43236;47.208;7.518;2023-03-20T13:18:24;16.10;77.50
38941;DHT22;43236;47.208;7.518;2023-03-20T13:21:18;16.10;75.10
38941;DHT22;43236;47.208;7.518;2023-03-20T13:24:24;16.30;77.10
38941;DHT22;43236;47.208;7.518;2023-03-20T13:27:28;16.20;77.50
38941;DHT22;43236;47.208;7.518;2023-03-20T13:30:25;16.20;77.60
38941;DHT22;43236;47.208;7.518;2023-03-20T13:33:25;16.30;77.30
38941;DHT22;43236;47.208;7.518;2023-03-20T13:36:26;16.30;78.70
38941;DHT22;43236;47.208;7.518;2023-03-20T13:39:19;16.30;77.20
38941;DHT22;43236;47.208;7.518;2023-03-20T13:42:12;16.30;77.90
38941;DHT22;43236;47.208;7.518;2023-03-20T13:45:04;16.20;78.00
38941;DHT22;43236;47.208;7.518;2023-03-20T13:47:53;16.20;78.60
38941;DHT22;43236;47.208;7.518;2023-03-20T13:50:45;16.10;78.90
38941;DHT22;43236;47.208;7.518;2023-03-20T13:53:42;16.10;78.90
38941;DHT22;43236;47.208;7.518;2023-03-20T13:56:38;16.10;79.30
38941;DHT22;43236;47.208;7.518;2023-03-20T13:59:53;16.10;78.90
38941;DHT22;43236;47.208;7.518;2023-03-20T14:02:52;16.20;78.10
38941;DHT22;43236;47.208;7.518;2023-03-20T14:05:43;16.20;79.20
38941;DHT22;43236;47.208;7.518;2023-03-20T14:08:33;16.30;78.10
38941;DHT22;43236;47.208;7.518;2023-03-20T14:11:26;16.30;77.90
38941;DHT22;43236;47.208;7.518;2023-03-20T14:14:26;16.30;77.40
38941;DHT22;43236;47.208;7.518;2023-03-20T14:17:16;16.30;77.90
38941;DHT22;43236;47.208;7.518;2023-03-20T14:20:11;16.20;77.30
38941;DHT22;43236;47.208;7.518;2023-03-20T14:23:00;16.10;76.10
38941;DHT22;43236;47.208;7.518;2023-03-20T14:25:47;16.00;75.70
38941;DHT22;43236;47.208;7.518;2023-03-20T14:28:52;16.00;77.80
38941;DHT22;43236;47.208;7.518;2023-03-20T14:31:41;16.00;77.80
38941;DHT22;43236;47.208;7.518;2023-03-20T14:34:44;16.00;77.20
38941;DHT22;43236;47.208;7.518;2023-03-20T14:37:37;15.90;77.40
38941;DHT22;43236;47.208;7.518;2023-03-20T14:40:28;16.10;78.10
38941;DHT22;43236;47.208;7.518;2023-03-20T14:43:22;16.00;78.20
38941;DHT22;43236;47.208;7.518;2023-03-20T14:46:19;16.00;78.30
38941;DHT22;43236;47.208;7.518;2023-03-20T14:49:23;16.10;75.80
38941;DHT22;43236;47.208;7.518;2023-03-20T14:52:22;16.10;77.30
38941;DHT22;43236;47.208;7.518;2023-03-20T14:55:32;16.20;77.70
38941;DHT22;43236;47.208;7.518;2023-03-20T14:58:46;16.40;78.10
38941;DHT22;43236;47.208;7.518;2023-03-20T15:01:45;16.50;78.30
38941;DHT22;43236;47.208;7.518;2023-03-20T15:04:37;16.60;76.50
38941;DHT22;43236;47.208;7.518;2023-03-20T15:07:28;16.60;77.20
38941;DHT22;43236;47.208;7.518;2023-03-20T15:10:16;16.60;77.70
38941;DHT22;43236;47.208;7.518;2023-03-20T15:13:04;16.60;77.50
38941;DHT22;43236;47.208;7.518;2023-03-20T15:15:54;16.50;76.50
38941;DHT22;43236;47.208;7.518;2023-03-20T15:18:43;16.40;75.60
38941;DHT22;43236;47.208;7.518;2023-03-20T15:21:35;16.20;76.20
38941;DHT22;43236;47.208;7.518;2023-03-20T15:24:24;16.00;76.60
38941;DHT22;43236;47.208;7.518;2023-03-20T15:27:12;15.90;75.20
38941;DHT22;43236;47.208;7.518;2023-03-20T15:30:01;15.80;76.60
38941;DHT22;43236;47.208;7.518;2023-03-20T15:32:52;15.80;78.80
38941;DHT22;43236;47.208;7.518;2023-03-20T15:35:40;15.70;78.50
38941;DHT22;43236;47.208;7.518;2023-03-20T15:38:31;15.70;77.70
38941;DHT22;43236;47.208;7.518;2023-03-20T15:41:27;15.60;76.40
38941;DHT22;43236;47.208;7.518;2023-03-20T15:44:17;15.70;77.60
38941;DHT22;43236;47.208;7.518;2023-03-20T15:47:11;15.60;75.90
38941;DHT22;43236;47.208;7.518;2023-03-20T15:49:59;15.60;75.10
38941;DHT22;43236;47.208;7.518;2023-03-20T15:52:47;15.60;74.90
38941;DHT22;43236;47.208;7.518;2023-03-20T15:55:39;15.60;76.40
38941;DHT22;43236;47.208;7.518;2023-03-20T15:58:27;15.70;76.00
38941;DHT22;43236;47.208;7.518;2023-03-20T16:01:17;15.80;78.60
38941;DHT22;43236;47.208;7.518;2023-03-20T16:04:05;15.80;77.10
38941;DHT22;43236;47.208;7.518;2023-03-20T16:06:53;15.90;74.40
38941;DHT22;43236;47.208;7.518;2023-03-20T16:09:42;15.90;75.80
38941;DHT22;43236;47.208;7.518;2023-03-20T16:12:31;15.90;77.70
38941;DHT22;43236;47.208;7.518;2023-03-20T16:15:19;16.00;78.00
38941;DHT22;43236;47.208;7.518;2023-03-20T16:18:07;16.00;77.10
38941;DHT22;43236;47.208;7.518;2023-03-20T16:20:58;16.00;74.30
38941;DHT22;43236;47.208;7.518;2023-03-20T16:23:49;16.00;74.10
38941;DHT22;43236;47.208;7.518;2023-03-20T16:26:41;16.00;72.20
38941;DHT22;43236;47.208;7.518;2023-03-20T16:29:30;16.00;71.40
38941;DHT22;43236;47.208;7.518;2023-03-20T16:32:23;15.90;72.50
38941;DHT22;43236;47.208;7.518;2023-03-20T16:35:16;15.90;72.00
38941;DHT22;43236;47.208;7.518;2023-03-20T16:38:15;15.90;72.90
38941;DHT22;43236;47.208;7.518;2023-03-20T16:41:15;15.80;75.80
38941;DHT22;43236;47.208;7.518;2023-03-20T16:44:06;15.70;75.80
38941;DHT22;43236;47.208;7.518;2023-03-20T16:46:59;15.60;75.40
38941;DHT22;43236;47.208;7.518;2023-03-20T16:50:02;15.60;77.10
38941;DHT22;43236;47.208;7.518;2023-03-20T16:52:55;15.40;76.10
38941;DHT22;43236;47.208;7.518;2023-03-20T16:55:44;15.30;77.30
38941;DHT22;43236;47.208;7.518;2023-03-20T16:58:32;15.20;77.00
38941;DHT22;43236;47.208;7.518;2023-03-20T17:01:21;15.10;79.30
38941;DHT22;43236;47.208;7.518;2023-03-20T17:04:17;15.00;77.00
38941;DHT22;43236;47.208;7.518;2023-03-20T17:07:10;15.00;77.30
38941;DHT22;43236;47.208;7.518;2023-03-20T17:10:16;15.00;76.70
38941;DHT22;43236;47.208;7.518;2023-03-20T17:13:04;14.90;76.80
38941;DHT22;43236;47.208;7.518;2023-03-20T17:15:53;14.90;77.80
38941;DHT22;43236;47.208;7.518;2023-03-20T17:18:40;14.90;77.80
38941;DHT22;43236;47.208;7.518;2023-03-20T17:21:28;14.80;78.10
38941;DHT22;43236;47.208;7.518;2023-03-20T17:24:16;14.80;78.50
38941;DHT22;43236;47.208;7.518;2023-03-20T17:27:03;14.70;80.30
38941;DHT22;43236;47.208;7.518;2023-03-20T17:29:50;14.70;79.10
38941;DHT22;43236;47.208;7.518;2023-03-20T17:32:37;14.60;79.20
38941;DHT22;43236;47.208;7.518;2023-03-20T17:35:24;14.60;80.50
38941;DHT22;43236;47.208;7.518;2023-03-20T17:38:17;14.50;80.00
38941;DHT22;43236;47.208;7.518;2023-03-20T17:41:04;14.50;80.70
38941;DHT22;43236;47.208;7.518;2023-03-20T17:43:52;14.50;81.60
38941;DHT22;43236;47.208;7.518;2023-03-20T17:46:41;14.40;82.60
38941;DHT22;43236;47.208;7.518;2023-03-20T17:49:28;14.30;83.20
38941;DHT22;43236;47.208;7.518;2023-03-20T17:52:16;14.20;84.30
38941;DHT22;43236;47.208;7.518;2023-03-20T17:55:06;14.10;84.40
38941;DHT22;43236;47.208;7.518;2023-03-20T17:57:53;14.00;84.80
38941;DHT22;43236;47.208;7.518;2023-03-20T18:00:41;14.00;85.00
38941;DHT22;43236;47.208;7.518;2023-03-20T18:03:28;13.80;85.30
38941;DHT22;43236;47.208;7.518;2023-03-20T18:06:24;13.80;85.80
38941;DHT22;43236;47.208;7.518;2023-03-20T18:09:12;13.70;86.10
38941;DHT22;43236;47.208;7.518;2023-03-20T18:12:00;13.60;87.50
38941;DHT22;43236;47.208;7.518;2023-03-20T18:14:47;13.60;87.10
38941;DHT22;43236;47.208;7.518;2023-03-20T18:17:34;13.50;87.90
38941;DHT22;43236;47.208;7.518;2023-03-20T18:20:24;13.50;88.10